Time;durP1;ratioP1;P1;durP2;ratioP2;P2;SDS_P1;SDS_P2;PMS_P1;PMS_P2;Temp;Humidity;BMP_temperature;BMP_pressure;BME280_temperature;BME280_humidity;BME280_pressure;Samples;Min_cycle;Max_cycle;Signal;HPM_P1;HPM_P2
2021/05/10 00:01:25;;;;;;;5.77;3.20;;;15.20;99.90;;;;;;5018602;28;20991;-72
2021/05/10 00:04:10;;;;;;;5.30;3.40;;;15.20;99.90;;;;;;5019672;28;20545;-72
2021/05/10 00:06:56;;;;;;;5.60;3.07;;;15.20;99.90;;;;;;5018535;28;20512;-72
2021/05/10 00:09:41;;;;;;;6.20;3.60;;;15.20;99.90;;;;;;5017737;28;20424;-72
2021/05/10 00:12:26;;;;;;;4.90;3.13;;;15.40;99.90;;;;;;5023054;28;20478;-71
2021/05/10 00:15:12;;;;;;;4.23;3.17;;;15.40;99.90;;;;;;5022344;28;21072;-71
2021/05/10 00:18:02;;;;;;;4.87;3.10;;;15.50;99.90;;;;;;5015664;28;20919;-71
2021/05/10 00:20:49;;;;;;;7.10;3.60;;;15.20;99.90;;;;;;5018096;28;20448;-71
2021/05/10 00:23:34;;;;;;;4.73;3.30;;;15.10;99.90;;;;;;5014661;28;20504;-72
2021/05/10 00:26:19;;;;;;;5.00;3.10;;;15.20;99.90;;;;;;5019024;28;20450;-71
2021/05/10 00:29:04;;;;;;;5.43;3.03;;;15.00;99.90;;;;;;5020900;28;20460;-72
2021/05/10 00:31:49;;;;;;;5.57;3.43;;;14.90;99.90;;;;;;5021283;28;20512;-71
2021/05/10 00:34:34;;;;;;;8.70;3.80;;;15.00;99.90;;;;;;5017661;28;20496;-71
2021/05/10 00:37:20;;;;;;;4.00;3.03;;;15.10;99.90;;;;;;5020938;28;21006;-71
2021/05/10 00:40:06;;;;;;;6.90;2.90;;;15.00;99.90;;;;;;5019420;28;20427;-72
2021/05/10 00:42:51;;;;;;;6.67;4.53;;;15.00;99.90;;;;;;5018651;28;20451;-72
2021/05/10 00:45:37;;;;;;;6.27;3.10;;;15.10;99.90;;;;;;5015172;28;21127;-71
2021/05/10 00:48:22;;;;;;;4.90;3.47;;;15.10;99.90;;;;;;5015911;28;20541;-71
2021/05/10 00:51:07;;;;;;;10.20;2.90;;;15.20;99.90;;;;;;5022171;28;20452;-72
2021/05/10 00:53:53;;;;;;;5.30;3.17;;;15.10;99.90;;;;;;5020871;28;20439;-71
2021/05/10 00:56:38;;;;;;;4.93;3.03;;;14.90;99.90;;;;;;5016498;28;20439;-71
2021/05/10 00:59:23;;;;;;;4.10;3.10;;;15.00;99.90;;;;;;5028940;23;20533;-76
2021/05/10 01:02:08;;;;;;;3.70;3.03;;;14.90;99.90;;;;;;5007005;28;20425;-76
2021/05/10 01:04:53;;;;;;;5.23;3.00;;;15.00;99.90;;;;;;5013360;28;20450;-76
2021/05/10 01:07:39;;;;;;;5.80;3.30;;;14.90;99.90;;;;;;5004210;28;20968;-76
2021/05/10 01:10:26;;;;;;;7.60;3.20;;;14.90;99.90;;;;;;5002699;28;20492;-76
2021/05/10 01:13:11;;;;;;;4.50;3.00;;;14.90;99.90;;;;;;5012681;28;20465;-76
2021/05/10 01:15:56;;;;;;;7.50;3.00;;;14.80;99.90;;;;;;5011697;28;20460;-76
2021/05/10 01:18:41;;;;;;;4.20;3.43;;;15.00;99.90;;;;;;5004647;28;21133;-76
2021/05/10 01:21:28;;;;;;;4.10;3.43;;;15.00;99.90;;;;;;5010813;28;20530;-76
2021/05/10 01:24:14;;;;;;;5.70;3.03;;;15.00;99.90;;;;;;5008920;28;20429;-76
2021/05/10 01:27:00;;;;;;;4.70;3.50;;;15.10;99.90;;;;;;5007658;28;20453;-76
2021/05/10 01:29:46;;;;;;;4.30;3.40;;;15.20;99.90;;;;;;5010477;28;20449;-76
2021/05/10 01:32:31;;;;;;;8.23;3.30;;;15.20;99.90;;;;;;5005071;28;20469;-76
2021/05/10 01:35:18;;;;;;;6.20;3.90;;;14.90;99.90;;;;;;5009861;28;20830;-76
2021/05/10 01:38:04;;;;;;;6.73;3.17;;;14.90;99.90;;;;;;5005231;28;20490;-76
2021/05/10 01:40:50;;;;;;;7.00;3.70;;;14.80;99.90;;;;;;5010207;28;20484;-76
2021/05/10 01:43:35;;;;;;;6.57;4.03;;;14.80;99.90;;;;;;5005809;28;20837;-76
2021/05/10 01:46:21;;;;;;;6.00;3.50;;;14.90;99.90;;;;;;5002125;28;20722;-76
2021/05/10 01:49:06;;;;;;;4.83;3.63;;;14.80;99.90;;;;;;5008790;28;20596;-76
2021/05/10 01:51:51;;;;;;;9.57;4.83;;;14.60;99.90;;;;;;5009432;28;20686;-76
2021/05/10 01:54:35;;;;;;;11.10;3.67;;;14.50;99.90;;;;;;5008027;28;20434;-76
2021/05/10 01:57:22;;;;;;;5.20;3.73;;;14.40;99.90;;;;;;4995799;28;20529;-79
2021/05/10 02:00:10;;;;;;;5.13;3.40;;;14.50;99.90;;;;;;5004300;28;21149;-76
2021/05/10 02:02:59;;;;;;;9.13;3.70;;;14.50;99.90;;;;;;5007365;28;20439;-76
2021/05/10 02:05:47;;;;;;;6.90;3.70;;;14.30;99.90;;;;;;5002810;28;20481;-76
2021/05/10 02:08:32;;;;;;;5.10;3.60;;;14.20;99.90;;;;;;5000863;28;20528;-76
2021/05/10 02:11:18;;;;;;;5.10;3.67;;;14.20;99.90;;;;;;5011774;28;20556;-76
2021/05/10 02:14:04;;;;;;;4.17;3.77;;;14.20;99.90;;;;;;5006685;28;21018;-76
2021/05/10 02:16:49;;;;;;;5.87;3.87;;;14.10;99.90;;;;;;5007536;28;20447;-76
2021/05/10 02:19:35;;;;;;;4.87;3.87;;;14.00;99.90;;;;;;4999149;28;21137;-76
2021/05/10 02:22:20;;;;;;;5.87;4.53;;;13.80;99.90;;;;;;4997639;28;20766;-77
2021/05/10 02:25:06;;;;;;;5.23;4.00;;;13.80;99.90;;;;;;5005445;28;20461;-76
2021/05/10 02:27:52;;;;;;;3.80;3.20;;;14.10;99.90;;;;;;5005849;28;20537;-76
2021/05/10 02:30:39;;;;;;;6.13;4.07;;;14.00;99.90;;;;;;5005845;28;20449;-76
2021/05/10 02:33:25;;;;;;;4.80;3.63;;;13.80;99.90;;;;;;5001710;28;21007;-76
2021/05/10 02:36:11;;;;;;;7.57;3.73;;;14.00;99.90;;;;;;5001831;28;20491;-76
2021/05/10 02:38:56;;;;;;;7.40;3.60;;;14.20;99.90;;;;;;5004823;28;20443;-76
2021/05/10 02:41:41;;;;;;;12.93;3.47;;;14.00;99.90;;;;;;5006547;28;20818;-79
2021/05/10 02:44:26;;;;;;;4.03;3.60;;;13.80;99.90;;;;;;5010260;28;20431;-77
2021/05/10 02:47:12;;;;;;;7.63;4.00;;;13.70;99.90;;;;;;5003284;28;20433;-76
2021/05/10 02:49:57;;;;;;;4.83;3.30;;;13.50;99.90;;;;;;5003535;28;20474;-76
2021/05/10 02:52:42;;;;;;;4.93;4.27;;;13.70;99.90;;;;;;5006892;28;20449;-79
2021/05/10 02:55:27;;;;;;;6.60;4.40;;;13.80;99.90;;;;;;5002950;28;20496;-78
2021/05/10 02:58:13;;;;;;;6.07;3.50;;;13.90;99.90;;;;;;5008196;28;20455;-79
2021/05/10 03:00:57;;;;;;;6.70;3.53;;;14.00;99.90;;;;;;5000788;28;20470;-79
2021/05/10 03:03:43;;;;;;;4.60;3.70;;;13.90;99.90;;;;;;5006152;28;20428;-78
2021/05/10 03:06:28;;;;;;;4.10;3.57;;;13.80;99.90;;;;;;5000197;28;20457;-78
2021/05/10 03:09:14;;;;;;;5.43;4.10;;;13.70;99.90;;;;;;5008035;28;20488;-78
2021/05/10 03:11:59;;;;;;;5.23;3.63;;;13.50;99.90;;;;;;5006102;28;20571;-78
2021/05/10 03:14:44;;;;;;;7.73;3.40;;;13.60;99.90;;;;;;5004948;28;20955;-78
2021/05/10 03:17:29;;;;;;;5.87;3.20;;;13.50;99.90;;;;;;5002187;28;20552;-78
2021/05/10 03:20:17;;;;;;;3.50;3.20;;;13.50;99.90;;;;;;5009159;28;20441;-78
2021/05/10 03:23:03;;;;;;;3.17;2.60;;;13.60;99.90;;;;;;5004076;28;20454;-78
2021/05/10 03:25:48;;;;;;;3.50;2.67;;;13.70;99.90;;;;;;5002322;28;20521;-78
2021/05/10 03:28:34;;;;;;;11.23;2.97;;;13.60;99.90;;;;;;5000954;28;21081;-78
2021/05/10 03:31:19;;;;;;;3.23;2.70;;;13.60;99.90;;;;;;5007014;28;20508;-78
2021/05/10 03:34:04;;;;;;;6.07;3.27;;;13.60;99.90;;;;;;5003111;28;20437;-78
2021/05/10 03:36:50;;;;;;;11.50;2.97;;;13.70;99.90;;;;;;4997850;28;20478;-78
2021/05/10 03:39:35;;;;;;;7.00;4.00;;;13.80;99.90;;;;;;5004341;28;20871;-78
2021/05/10 03:42:20;;;;;;;7.30;3.90;;;13.90;99.90;;;;;;5004548;28;20946;-78
2021/05/10 03:45:07;;;;;;;5.73;3.17;;;14.00;99.90;;;;;;5004759;28;20449;-79
2021/05/10 03:47:52;;;;;;;8.10;3.43;;;14.20;99.90;;;;;;5006742;28;20517;-78
2021/05/10 03:50:37;;;;;;;4.00;3.20;;;14.10;99.90;;;;;;5004557;28;20489;-78
2021/05/10 03:53:23;;;;;;;3.70;3.00;;;13.90;99.90;;;;;;5000699;28;20445;-78
2021/05/10 03:56:10;;;;;;;6.13;3.40;;;13.90;99.90;;;;;;4997702;28;20517;-78
2021/05/10 03:58:55;;;;;;;5.70;2.90;;;14.00;99.90;;;;;;5006483;28;20452;-78
2021/05/10 04:01:40;;;;;;;6.00;2.90;;;14.10;99.90;;;;;;5003893;28;20593;-79
2021/05/10 04:04:26;;;;;;;4.20;3.23;;;14.10;99.90;;;;;;5004118;28;20494;-78
2021/05/10 04:07:40;;;;;;;3.70;2.40;;;14.20;99.90;;;;;;5002207;28;20501;-79
2021/05/10 04:13:36;;;;;;;4.10;2.43;;;14.40;99.90;;;;;;5006427;28;20445;-78
2021/05/10 04:16:21;;;;;;;4.67;2.90;;;14.40;99.90;;;;;;5006931;28;21009;-78
2021/05/10 04:19:06;;;;;;;7.57;2.80;;;14.60;99.90;;;;;;5002648;28;20954;-78
2021/05/10 04:21:51;;;;;;;8.80;2.50;;;14.70;99.90;;;;;;5003851;28;20504;-78
2021/05/10 04:24:37;;;;;;;5.83;2.63;;;14.80;99.90;;;;;;5001883;28;20529;-78
2021/05/10 04:27:23;;;;;;;3.60;2.63;;;15.00;99.90;;;;;;5005576;28;21024;-78
2021/05/10 04:30:09;;;;;;;2.93;2.20;;;15.10;99.90;;;;;;5000976;28;20448;-78
2021/05/10 04:32:58;;;;;;;6.50;2.40;;;15.30;99.90;;;;;;5002774;28;20542;-78
2021/05/10 04:35:43;;;;;;;6.20;2.60;;;15.40;99.90;;;;;;5003937;28;20460;-78
2021/05/10 04:38:28;;;;;;;4.67;2.70;;;15.40;99.90;;;;;;5006801;28;20531;-77
2021/05/10 04:41:13;;;;;;;8.03;2.90;;;15.60;99.90;;;;;;4999285;28;20454;-78
2021/05/10 04:43:59;;;;;;;4.67;2.30;;;15.70;99.90;;;;;;5004447;28;20812;-78
2021/05/10 04:46:44;;;;;;;7.73;1.63;;;15.80;99.90;;;;;;4999907;28;20445;-78
2021/05/10 04:49:30;;;;;;;9.87;2.00;;;16.10;99.90;;;;;;5000117;28;20469;-78
2021/05/10 04:52:15;;;;;;;5.73;2.10;;;16.30;99.90;;;;;;4998392;28;20460;-77
2021/05/10 04:55:00;;;;;;;6.03;2.67;;;16.40;99.90;;;;;;5005591;28;20448;-77
2021/05/10 04:57:45;;;;;;;3.33;1.93;;;16.50;99.90;;;;;;4999482;28;20455;-78
2021/05/10 05:00:31;;;;;;;2.20;1.53;;;16.80;99.90;;;;;;4997937;28;20552;-78
2021/05/10 05:03:17;;;;;;;3.33;1.53;;;17.10;99.90;;;;;;4999914;28;20436;-77
2021/05/10 05:06:02;;;;;;;3.77;2.20;;;17.40;99.90;;;;;;4999508;28;20520;-78
2021/05/10 05:08:47;;;;;;;5.60;1.90;;;17.50;99.90;;;;;;5001735;28;20460;-78
2021/05/10 05:11:32;;;;;;;5.30;1.77;;;17.60;99.90;;;;;;5007693;28;20457;-76
2021/05/10 05:14:17;;;;;;;3.97;2.20;;;17.60;99.90;;;;;;5006957;28;20496;-77
2021/05/10 05:17:04;;;;;;;5.47;1.77;;;17.50;99.90;;;;;;5003114;28;21081;-78
2021/05/10 05:19:49;;;;;;;4.33;2.30;;;17.40;99.90;;;;;;5003357;28;20499;-77
2021/05/10 05:22:35;;;;;;;2.93;1.57;;;17.30;99.90;;;;;;5003429;28;20452;-78
2021/05/10 05:25:20;;;;;;;4.30;2.07;;;17.20;99.90;;;;;;4998483;28;20444;-78
2021/05/10 05:28:06;;;;;;;3.90;2.43;;;17.30;99.90;;;;;;5004315;28;20577;-77
2021/05/10 05:30:51;;;;;;;3.50;2.20;;;17.30;99.90;;;;;;5000377;28;20465;-78
2021/05/10 05:33:37;;;;;;;4.00;2.13;;;17.30;99.90;;;;;;4999693;28;20453;-77
2021/05/10 05:36:22;;;;;;;3.23;2.03;;;17.30;99.90;;;;;;4997675;28;20489;-75
2021/05/10 05:39:07;;;;;;;2.70;2.00;;;17.40;99.90;;;;;;5002980;28;20448;-77
2021/05/10 05:41:52;;;;;;;2.40;1.80;;;17.50;99.90;;;;;;5003146;28;20461;-76
2021/05/10 05:44:39;;;;;;;3.57;2.03;;;17.60;99.90;;;;;;4997678;28;20504;-76
2021/05/10 05:47:25;;;;;;;4.33;2.10;;;17.70;99.90;;;;;;4995669;28;21019;-76
2021/05/10 05:50:11;;;;;;;23.90;2.50;;;17.80;99.90;;;;;;5001292;28;20448;-77
2021/05/10 05:52:57;;;;;;;4.00;2.20;;;17.90;99.90;;;;;;5000413;28;20461;-74
2021/05/10 05:55:42;;;;;;;3.97;2.80;;;18.10;99.90;;;;;;4998173;28;20448;-74
2021/05/10 05:58:28;;;;;;;4.80;2.10;;;18.20;99.90;;;;;;5002084;28;20516;-74
2021/05/10 06:01:13;;;;;;;5.13;2.40;;;18.20;99.90;;;;;;5005753;28;20967;-73
2021/05/10 06:03:58;;;;;;;3.23;2.20;;;18.30;99.90;;;;;;5004707;28;20444;-74
2021/05/10 06:06:44;;;;;;;4.57;2.27;;;18.30;99.90;;;;;;4999650;28;20512;-73
2021/05/10 06:09:29;;;;;;;3.33;2.07;;;18.30;99.90;;;;;;4999673;28;20921;-74
2021/05/10 06:12:14;;;;;;;5.53;2.10;;;18.40;99.90;;;;;;5006055;28;20500;-74
2021/05/10 06:14:59;;;;;;;3.80;1.87;;;18.50;99.90;;;;;;5002886;28;21080;-74
2021/05/10 06:17:45;;;;;;;3.83;2.23;;;18.60;99.90;;;;;;5003303;28;20480;-74
2021/05/10 06:20:30;;;;;;;5.30;2.60;;;18.70;99.90;;;;;;5006672;28;20445;-78
2021/05/10 06:23:16;;;;;;;3.57;2.13;;;18.80;99.90;;;;;;5005097;28;20428;-77
2021/05/10 06:26:01;;;;;;;4.40;2.40;;;18.90;99.90;;;;;;4999006;28;20498;-75
2021/05/10 06:28:46;;;;;;;4.60;2.40;;;18.90;99.90;;;;;;5002512;28;20584;-77
2021/05/10 06:31:31;;;;;;;17.53;2.70;;;18.90;99.90;;;;;;5001026;28;20852;-76
2021/05/10 06:34:17;;;;;;;5.33;2.70;;;19.00;99.90;;;;;;5005457;28;20452;-76
2021/05/10 06:37:02;;;;;;;3.53;2.27;;;19.10;99.90;;;;;;5004415;28;20484;-76
2021/05/10 06:39:48;;;;;;;4.57;2.50;;;19.20;99.90;;;;;;5001777;28;20977;-75
2021/05/10 06:42:33;;;;;;;3.53;1.77;;;19.20;99.90;;;;;;5004322;28;20533;-76
2021/05/10 06:45:18;;;;;;;4.00;2.33;;;19.30;99.90;;;;;;5003864;28;20524;-76
2021/05/10 06:48:04;;;;;;;3.53;2.00;;;19.30;99.90;;;;;;4994823;28;20481;-76
2021/05/10 06:50:49;;;;;;;7.07;2.17;;;19.30;99.90;;;;;;5004996;28;20453;-77
2021/05/10 06:53:34;;;;;;;4.43;2.40;;;19.40;99.90;;;;;;5001309;28;20802;-76
2021/05/10 06:56:21;;;;;;;3.90;2.30;;;19.40;99.90;;;;;;5001607;28;21004;-78
2021/05/10 06:59:06;;;;;;;4.10;2.33;;;19.50;99.90;;;;;;5005703;28;20473;-76
2021/05/10 07:01:51;;;;;;;8.90;2.50;;;19.60;99.90;;;;;;5028916;23;20562;-75
2021/05/10 07:04:36;;;;;;;2.97;1.50;;;19.60;99.90;;;;;;5041659;28;20543;-75
2021/05/10 07:07:22;;;;;;;3.90;1.87;;;19.60;99.90;;;;;;5042567;28;20467;-75
2021/05/10 07:10:08;;;;;;;6.27;2.30;;;19.70;99.90;;;;;;5037873;28;20444;-75
2021/05/10 07:12:54;;;;;;;4.83;2.03;;;19.80;99.90;;;;;;5037193;28;20480;-75
2021/05/10 07:15:39;;;;;;;6.30;3.60;;;19.90;99.90;;;;;;5047016;28;20445;-75
2021/05/10 07:18:24;;;;;;;4.13;2.60;;;20.10;99.90;;;;;;5043518;28;20564;-76
2021/05/10 07:21:09;;;;;;;6.80;3.00;;;20.10;94.90;;;;;;5043666;28;20815;-75
2021/05/10 07:23:55;;;;;;;7.63;2.27;;;20.20;94.50;;;;;;5038064;28;20487;-76
2021/05/10 07:26:40;;;;;;;11.13;2.50;;;20.30;95.80;;;;;;5041292;28;20529;-75
2021/05/10 07:29:26;;;;;;;5.43;2.17;;;20.40;95.00;;;;;;5045341;28;20451;-75
2021/05/10 07:32:10;;;;;;;9.20;2.77;;;20.40;94.30;;;;;;5038562;28;20463;-75
2021/05/10 07:34:56;;;;;;;9.50;2.20;;;20.30;91.40;;;;;;5044008;28;20811;-75
2021/05/10 07:37:41;;;;;;;6.30;2.97;;;20.40;91.90;;;;;;5042845;28;20522;-75
2021/05/10 07:40:26;;;;;;;8.67;2.43;;;20.50;93.70;;;;;;5044033;28;20451;-74
2021/05/10 07:43:11;;;;;;;7.10;2.40;;;20.50;92.80;;;;;;5044510;28;20834;-75
2021/05/10 07:45:57;;;;;;;7.43;2.70;;;20.70;92.30;;;;;;5038070;28;20455;-76
2021/05/10 07:48:43;;;;;;;5.50;2.00;;;20.80;87.80;;;;;;5034547;28;20494;-76
2021/05/10 07:51:28;;;;;;;4.27;2.03;;;20.90;84.60;;;;;;5037152;28;21067;-76
2021/05/10 07:54:13;;;;;;;9.10;2.33;;;21.00;85.30;;;;;;5048471;28;20455;-76
2021/05/10 07:56:58;;;;;;;5.00;2.10;;;21.10;83.90;;;;;;5045920;28;20557;-76
2021/05/10 07:59:46;;;;;;;5.47;1.93;;;21.00;84.70;;;;;;5049699;28;20556;-76
2021/05/10 08:02:33;;;;;;;5.63;2.20;;;21.20;80.30;;;;;;5045977;28;20479;-76
2021/05/10 08:05:18;;;;;;;9.63;2.30;;;21.20;77.00;;;;;;5045912;28;20448;-76
2021/05/10 08:08:03;;;;;;;22.13;2.30;;;21.40;81.70;;;;;;5045122;28;20449;-76
2021/05/10 08:10:49;;;;;;;3.70;1.87;;;21.50;76.80;;;;;;5035178;28;20467;-76
2021/05/10 08:13:33;;;;;;;3.40;1.50;;;21.40;76.30;;;;;;5033690;28;21303;-77
2021/05/10 08:16:18;;;;;;;3.30;1.93;;;21.40;76.40;;;;;;5055329;28;21008;-76
2021/05/10 08:19:05;;;;;;;6.90;2.10;;;21.30;77.10;;;;;;5051970;28;20503;-76
2021/05/10 08:21:50;;;;;;;5.93;1.80;;;21.40;78.20;;;;;;5050782;28;20495;-76
2021/05/10 08:24:35;;;;;;;4.47;2.03;;;21.50;78.40;;;;;;5042413;28;20451;-76
2021/05/10 08:27:20;;;;;;;9.10;2.33;;;21.60;75.60;;;;;;5048243;28;20419;-76
2021/05/10 08:30:07;;;;;;;8.03;2.53;;;21.70;76.20;;;;;;5046759;28;20452;-76
2021/05/10 08:32:57;;;;;;;3.80;1.77;;;21.60;72.50;;;;;;5039403;28;20470;-76
2021/05/10 08:35:43;;;;;;;5.83;1.90;;;21.50;74.50;;;;;;5034580;28;20601;-76
2021/05/10 08:38:28;;;;;;;4.10;2.10;;;21.50;73.60;;;;;;5039560;28;20446;-76
2021/05/10 08:41:13;;;;;;;4.60;1.50;;;21.50;74.40;;;;;;5050371;28;20451;-76
2021/05/10 08:43:58;;;;;;;11.60;1.63;;;21.40;75.00;;;;;;5050954;28;20970;-76
2021/05/10 08:46:44;;;;;;;3.07;1.30;;;21.40;72.60;;;;;;5043101;28;20499;-76
2021/05/10 08:49:29;;;;;;;3.10;1.20;;;21.40;72.80;;;;;;5039844;28;21133;-76
2021/05/10 08:52:16;;;;;;;7.37;1.40;;;21.30;66.50;;;;;;5041156;28;20471;-76
2021/05/10 08:55:01;;;;;;;5.87;1.00;;;21.10;65.80;;;;;;5041535;28;20973;-76
2021/05/10 08:57:46;;;;;;;5.20;1.20;;;21.00;68.20;;;;;;5039666;28;20477;-76
2021/05/10 09:00:31;;;;;;;3.83;1.40;;;21.00;68.60;;;;;;5038871;28;20451;-76
2021/05/10 09:03:17;;;;;;;6.67;1.57;;;21.10;68.60;;;;;;5044634;28;20567;-76
2021/05/10 09:06:02;;;;;;;2.53;1.07;;;21.30;67.30;;;;;;5040728;28;20464;-76
2021/05/10 09:08:50;;;;;;;3.87;1.30;;;21.40;66.50;;;;;;5035112;28;20451;-76
2021/05/10 09:11:36;;;;;;;3.07;1.27;;;21.50;68.30;;;;;;5032144;28;20597;-76
2021/05/10 09:14:32;;;;;;;2.20;1.00;;;21.60;66.20;;;;;;5045249;28;21006;-72
2021/05/10 09:17:18;;;;;;;4.40;0.93;;;21.60;64.30;;;;;;5040109;28;20521;-73
2021/05/10 09:20:15;;;;;;;1.80;0.80;;;21.50;63.00;;;;;;5038981;28;20479;-74
2021/05/10 09:23:01;;;;;;;3.30;0.80;;;21.30;61.60;;;;;;5037165;28;21942;-74
2021/05/10 09:25:55;;;;;;;2.40;1.00;;;21.20;60.70;;;;;;5034850;28;20578;-74
2021/05/10 09:28:42;;;;;;;5.73;1.63;;;20.90;62.00;;;;;;5040090;28;20977;-74
2021/05/10 09:31:28;;;;;;;1.60;0.73;;;20.80;63.50;;;;;;5043294;28;20462;-74
2021/05/10 09:34:15;;;;;;;8.80;0.80;;;20.70;62.20;;;;;;5051163;28;20471;-74
2021/05/10 09:37:03;;;;;;;2.23;0.90;;;20.60;63.90;;;;;;5038763;28;20504;-74
2021/05/10 09:39:48;;;;;;;1.80;0.60;;;20.60;61.40;;;;;;5051171;28;20940;-73
2021/05/10 09:42:51;;;;;;;4.37;0.87;;;20.50;62.60;;;;;;5048795;28;20513;-73
2021/05/10 09:45:39;;;;;;;2.07;0.87;;;20.50;62.50;;;;;;5041204;28;20446;-73
2021/05/10 09:48:27;;;;;;;1.70;0.80;;;20.60;63.50;;;;;;5040761;28;20475;-73
2021/05/10 09:51:13;;;;;;;4.57;0.80;;;20.60;63.80;;;;;;5047491;28;20458;-73
2021/05/10 09:53:59;;;;;;;2.03;0.70;;;20.70;65.50;;;;;;5043570;28;20456;-73
2021/05/10 09:56:44;;;;;;;3.57;0.70;;;20.70;64.00;;;;;;5045213;28;20483;-73
2021/05/10 09:59:30;;;;;;;3.30;1.97;;;20.90;65.70;;;;;;5040850;28;20800;-73
2021/05/10 10:02:33;;;;;;;1.60;0.70;;;21.10;67.40;;;;;;5047495;28;20564;-73
2021/05/10 10:05:18;;;;;;;2.00;0.87;;;21.00;65.70;;;;;;5044890;28;21038;-73
2021/05/10 10:08:04;;;;;;;1.90;0.80;;;21.10;64.30;;;;;;5040986;28;20506;-73
2021/05/10 10:10:50;;;;;;;6.93;1.00;;;21.10;64.30;;;;;;5034383;28;20557;-73
2021/05/10 10:13:35;;;;;;;5.83;1.47;;;21.10;64.50;;;;;;5040722;28;20460;-73
2021/05/10 10:16:22;;;;;;;2.03;0.80;;;21.00;64.00;;;;;;5042888;28;20448;-73
2021/05/10 10:19:08;;;;;;;3.90;0.90;;;21.10;66.90;;;;;;5044154;28;20583;-73
2021/05/10 10:21:53;;;;;;;2.80;0.83;;;21.20;67.10;;;;;;5040172;28;20479;-73
2021/05/10 10:24:41;;;;;;;3.63;1.03;;;21.30;66.00;;;;;;5038290;28;20451;-73
2021/05/10 10:27:27;;;;;;;4.83;1.10;;;21.20;63.90;;;;;;5040404;28;20454;-74
2021/05/10 10:30:14;;;;;;;3.20;1.03;;;21.10;64.20;;;;;;5047551;28;20964;-73
2021/05/10 10:33:05;;;;;;;2.40;1.10;;;21.10;65.30;;;;;;5039852;28;20463;-73
2021/05/10 10:35:51;;;;;;;3.93;0.80;;;21.10;65.80;;;;;;5044571;28;20472;-73
2021/05/10 10:38:36;;;;;;;6.53;1.10;;;21.00;65.70;;;;;;5042948;28;20522;-73
2021/05/10 10:41:25;;;;;;;2.57;0.60;;;21.00;65.90;;;;;;5044410;28;20887;-73
2021/05/10 10:44:28;;;;;;;2.27;0.60;;;21.00;63.60;;;;;;5044558;28;20539;-75
2021/05/10 10:47:15;;;;;;;2.13;0.60;;;21.00;64.00;;;;;;5046625;28;20533;-75
2021/05/10 10:50:02;;;;;;;1.83;0.70;;;21.10;63.10;;;;;;5044661;28;20462;-75
2021/05/10 10:52:51;;;;;;;2.00;0.70;;;21.10;62.60;;;;;;5042840;28;20446;-75
2021/05/10 10:55:40;;;;;;;1.60;0.60;;;21.10;62.70;;;;;;5041485;28;20447;-75
2021/05/10 10:58:25;;;;;;;1.53;0.60;;;21.20;60.00;;;;;;5042386;28;20461;-76
2021/05/10 11:01:13;;;;;;;4.47;0.80;;;21.40;63.20;;;;;;5039184;28;20471;-75
2021/05/10 11:04:25;;;;;;;2.27;0.60;;;21.40;58.00;;;;;;5041408;28;20506;-75
2021/05/10 11:07:11;;;;;;;2.53;0.70;;;21.50;59.90;;;;;;5038918;28;20487;-76
2021/05/10 11:09:56;;;;;;;1.83;0.70;;;21.50;59.50;;;;;;5046840;28;20471;-75
2021/05/10 11:12:51;;;;;;;1.60;0.70;;;21.60;58.60;;;;;;5046290;28;20438;-75
2021/05/10 11:15:46;;;;;;;1.50;0.60;;;21.50;60.10;;;;;;5045031;28;20502;-75
2021/05/10 11:18:47;;;;;;;2.07;0.70;;;21.30;56.90;;;;;;5035518;28;20452;-75
2021/05/10 11:21:41;;;;;;;1.63;0.60;;;21.40;58.80;;;;;;5040127;28;21116;-75
2021/05/10 11:24:30;;;;;;;4.23;0.70;;;21.40;60.30;;;;;;5034702;28;20932;-75
2021/05/10 11:27:24;;;;;;;1.70;0.60;;;21.50;56.80;;;;;;5031988;28;20444;-75
2021/05/10 11:30:10;;;;;;;2.00;0.87;;;21.40;56.60;;;;;;5040332;28;20447;-75
2021/05/10 11:32:55;;;;;;;1.70;0.67;;;21.40;58.50;;;;;;5046798;28;20483;-75
2021/05/10 11:35:41;;;;;;;3.87;0.80;;;21.40;57.10;;;;;;5036590;28;20499;-75
2021/05/10 11:38:27;;;;;;;1.63;0.60;;;21.20;56.80;;;;;;5042386;28;20529;-76
2021/05/10 11:41:13;;;;;;;1.90;0.70;;;21.10;58.00;;;;;;5048750;28;20478;-75
2021/05/10 11:44:00;;;;;;;2.07;0.60;;;21.20;59.20;;;;;;5039591;28;20521;-75
2021/05/10 11:46:48;;;;;;;1.77;0.80;;;21.10;57.00;;;;;;5044587;28;20843;-75
2021/05/10 11:49:34;;;;;;;2.13;0.93;;;21.00;56.00;;;;;;5037388;28;20479;-75
2021/05/10 11:52:21;;;;;;;1.70;0.70;;;20.90;59.40;;;;;;5041606;28;20487;-75
2021/05/10 11:55:06;;;;;;;2.93;0.70;;;20.80;60.40;;;;;;5038578;28;20456;-75
2021/05/10 11:57:57;;;;;;;2.97;0.70;;;20.80;58.50;;;;;;5042789;28;20455;-75
2021/05/10 12:00:51;;;;;;;2.43;0.50;;;20.70;57.10;;;;;;5046149;28;20418;-75
2021/05/10 12:03:36;;;;;;;1.70;0.60;;;20.50;58.70;;;;;;5037675;28;20455;-75
2021/05/10 12:06:31;;;;;;;1.80;0.80;;;20.40;59.10;;;;;;5047959;28;20467;-75
2021/05/10 12:09:46;;;;;;;2.07;0.63;;;20.40;60.00;;;;;;5045935;28;20447;-76
2021/05/10 12:12:34;;;;;;;3.93;0.63;;;20.40;59.90;;;;;;5045351;28;20985;-75
2021/05/10 12:15:23;;;;;;;1.83;0.60;;;20.40;58.90;;;;;;5042897;28;20443;-75
2021/05/10 12:18:08;;;;;;;6.03;0.90;;;20.30;60.20;;;;;;5039839;28;20529;-76
2021/05/10 12:20:53;;;;;;;2.90;0.70;;;20.30;61.30;;;;;;5037914;28;20822;-75
2021/05/10 12:23:39;;;;;;;1.70;0.53;;;20.40;61.80;;;;;;5042960;28;20486;-75
2021/05/10 12:26:24;;;;;;;2.90;0.50;;;20.40;62.00;;;;;;5047719;28;20982;-75
2021/05/10 12:29:09;;;;;;;2.70;1.10;;;20.40;62.80;;;;;;5038257;28;20451;-76
2021/05/10 12:31:55;;;;;;;2.03;0.70;;;20.50;61.70;;;;;;5039442;28;20553;-75
2021/05/10 12:34:41;;;;;;;1.70;0.60;;;20.40;61.30;;;;;;5041445;28;20950;-75
2021/05/10 12:37:26;;;;;;;1.90;0.77;;;20.50;63.30;;;;;;5049162;28;20503;-75
2021/05/10 12:40:13;;;;;;;8.70;0.70;;;20.50;65.30;;;;;;5036459;28;20566;-75
2021/05/10 12:43:11;;;;;;;4.90;0.70;;;20.50;67.30;;;;;;5037138;28;20518;-75
2021/05/10 12:46:00;;;;;;;5.00;0.90;;;20.40;68.80;;;;;;5043757;28;20540;-75
2021/05/10 12:48:49;;;;;;;1.70;0.60;;;20.30;70.30;;;;;;5045531;28;20430;-75
2021/05/10 12:51:34;;;;;;;4.73;0.70;;;20.20;72.60;;;;;;5039972;28;20486;-75
2021/05/10 12:54:19;;;;;;;1.80;0.60;;;20.20;73.30;;;;;;5039902;28;20446;-75
2021/05/10 12:57:06;;;;;;;3.40;0.77;;;20.00;74.10;;;;;;5047051;28;20479;-75
2021/05/10 12:59:51;;;;;;;1.87;0.83;;;20.00;78.80;;;;;;5035505;28;20491;-75
2021/05/10 13:02:43;;;;;;;3.27;0.70;;;19.90;78.00;;;;;;5040657;28;20471;-76
2021/05/10 13:05:31;;;;;;;3.23;0.70;;;19.80;80.20;;;;;;5051731;28;20815;-77
2021/05/10 13:08:16;;;;;;;3.63;0.80;;;19.90;84.20;;;;;;5040289;28;20789;-77
2021/05/10 13:11:02;;;;;;;2.27;1.00;;;19.80;86.80;;;;;;5036552;28;21072;-77
2021/05/10 13:14:03;;;;;;;2.50;0.90;;;19.70;90.90;;;;;;5039754;28;20439;-77
2021/05/10 13:17:02;;;;;;;3.87;0.97;;;19.70;94.60;;;;;;5038465;28;20499;-76
2021/05/10 13:20:08;;;;;;;6.63;1.10;;;19.60;96.90;;;;;;5043800;28;20476;-74
2021/05/10 13:23:19;;;;;;;4.07;0.80;;;19.50;97.30;;;;;;5036075;28;20505;-75
2021/05/10 13:32:16;;;;;;;1.70;0.70;;;19.10;99.90;;;;;;5038328;28;20967;-75
2021/05/10 13:35:08;;;;;;;1.70;0.70;;;19.10;99.90;;;;;;5041204;28;20796;-75
2021/05/10 13:38:01;;;;;;;2.27;0.70;;;19.10;99.90;;;;;;5035635;28;20893;-74
2021/05/10 13:40:47;;;;;;;5.00;0.70;;;19.00;99.90;;;;;;5039416;28;20468;-74
2021/05/10 13:43:35;;;;;;;4.50;0.90;;;19.10;99.90;;;;;;5033785;28;20461;-75
2021/05/10 13:46:24;;;;;;;2.00;0.90;;;19.30;99.90;;;;;;5038105;28;20974;-75
2021/05/10 13:49:12;;;;;;;2.37;0.80;;;19.40;99.90;;;;;;5056675;28;20414;-74
2021/05/10 13:51:57;;;;;;;1.97;0.80;;;19.40;99.90;;;;;;5041266;28;20541;-76
2021/05/10 13:54:43;;;;;;;5.00;1.00;;;19.30;99.90;;;;;;5045252;28;20497;-74
2021/05/10 13:57:28;;;;;;;2.03;0.70;;;19.10;99.90;;;;;;5034301;28;20456;-75
2021/05/10 14:00:15;;;;;;;1.60;0.73;;;19.00;99.90;;;;;;5041332;28;20919;-72
2021/05/10 14:03:00;;;;;;;2.30;0.70;;;18.90;99.90;;;;;;5041537;28;20455;-76
2021/05/10 14:05:45;;;;;;;6.00;0.80;;;18.80;99.90;;;;;;5043574;28;20597;-75
2021/05/10 14:08:30;;;;;;;8.23;1.00;;;18.80;99.90;;;;;;5041461;28;20441;-75
2021/05/10 14:11:16;;;;;;;2.63;0.83;;;18.80;99.90;;;;;;5039958;28;20439;-75
2021/05/10 14:14:02;;;;;;;1.53;0.57;;;18.90;99.90;;;;;;5044331;28;20788;-75
2021/05/10 14:16:48;;;;;;;2.00;0.80;;;19.00;99.90;;;;;;5040425;28;20450;-75
2021/05/10 14:19:33;;;;;;;2.47;0.80;;;19.00;99.90;;;;;;5045786;28;20859;-76
2021/05/10 14:22:18;;;;;;;2.30;0.77;;;19.00;99.90;;;;;;5045247;28;20437;-75
2021/05/10 14:25:05;;;;;;;2.50;0.90;;;18.80;99.90;;;;;;5043821;28;20498;-76
2021/05/10 14:27:54;;;;;;;1.83;0.90;;;18.90;99.90;;;;;;5046103;28;20476;-76
2021/05/10 14:30:40;;;;;;;2.03;0.70;;;18.90;99.90;;;;;;5045183;28;20476;-75
2021/05/10 14:33:25;;;;;;;1.80;0.70;;;18.90;99.90;;;;;;5046445;28;20485;-75
2021/05/10 14:36:10;;;;;;;1.90;0.70;;;18.90;99.90;;;;;;5045550;28;20567;-75